Time;durP1;ratioP1;P1;durP2;ratioP2;P2;SDS_P1;SDS_P2;PMS_P1;PMS_P2;Temp;Humidity;BMP_temperature;BMP_pressure;BME280_temperature;BME280_humidity;BME280_pressure;Samples;Min_cycle;Max_cycle;Signal;HPM_P1;HPM_P2
2023/07/08 00:01:44;;;;;;;8.77;4.88;;;18.90;99.90;;;;;;5020463;28;20097;-77
2023/07/08 00:04:10;;;;;;;10.23;5.40;;;18.90;99.90;;;;;;5012484;28;20076;-77
2023/07/08 00:06:36;;;;;;;11.55;5.50;;;18.80;99.90;;;;;;5010630;28;20100;-77
2023/07/08 00:09:02;;;;;;;10.43;4.97;;;18.80;99.90;;;;;;5010764;28;20054;-76
2023/07/08 00:11:29;;;;;;;10.98;5.55;;;18.80;99.90;;;;;;5011510;28;20054;-76
2023/07/08 00:13:55;;;;;;;9.13;5.07;;;18.80;99.90;;;;;;5020898;28;20034;-77
2023/07/08 00:16:20;;;;;;;10.35;5.15;;;18.70;99.90;;;;;;5012048;28;20022;-76
2023/07/08 00:18:48;;;;;;;11.85;5.43;;;18.70;99.90;;;;;;5012153;28;20104;-77
2023/07/08 00:21:16;;;;;;;9.65;5.60;;;18.60;99.90;;;;;;5012240;28;20022;-76
2023/07/08 00:23:47;;;;;;;9.82;5.25;;;18.70;99.90;;;;;;5012096;28;20026;-76
2023/07/08 00:26:20;;;;;;;10.13;4.82;;;18.60;99.90;;;;;;5012085;28;20600;-76
2023/07/08 00:28:46;;;;;;;10.48;5.18;;;18.60;99.90;;;;;;4993619;28;20479;-77
2023/07/08 00:31:13;;;;;;;10.50;5.28;;;18.60;99.90;;;;;;5012098;28;20021;-77
2023/07/08 00:33:41;;;;;;;9.80;5.57;;;18.60;99.90;;;;;;5011786;28;20037;-77
2023/07/08 00:36:16;;;;;;;8.98;4.90;;;18.60;99.90;;;;;;5012087;28;20027;-77
2023/07/08 00:38:45;;;;;;;9.30;5.47;;;18.40;99.90;;;;;;5012967;28;20048;-77
2023/07/08 00:41:24;;;;;;;11.48;5.30;;;18.40;99.90;;;;;;4994010;28;20403;-77
2023/07/08 00:43:57;;;;;;;10.90;5.47;;;18.30;99.90;;;;;;4994465;28;20030;-77
2023/07/08 00:46:32;;;;;;;;;;;18.10;99.90;;;;;;5012263;28;20052;-77
2023/07/08 00:49:08;;;;;;;10.55;5.55;;;18.10;99.90;;;;;;5011974;28;19952;-77
2023/07/08 00:51:37;;;;;;;11.63;5.13;;;18.10;99.90;;;;;;5011991;28;20095;-77
2023/07/08 00:54:04;;;;;;;11.45;6.13;;;18.10;99.90;;;;;;5014712;28;20487;-77
2023/07/08 00:56:35;;;;;;;10.68;5.28;;;18.00;99.90;;;;;;5015754;28;20723;-77
2023/07/08 00:59:19;;;;;;;11.98;5.95;;;18.10;99.90;;;;;;5015687;28;20037;-76
2023/07/08 01:01:45;;;;;;;14.68;5.68;;;18.00;99.90;;;;;;4997732;28;20026;-77
2023/07/08 01:04:17;;;;;;;12.07;5.75;;;18.10;99.90;;;;;;4997893;28;20117;-77
2023/07/08 01:06:57;;;;;;;10.57;4.97;;;18.10;99.90;;;;;;4997508;28;20042;-76
2023/07/08 01:09:30;;;;;;;10.45;5.15;;;18.10;99.90;;;;;;5015264;28;20426;-77
2023/07/08 01:12:00;;;;;;;12.57;5.60;;;18.10;99.90;;;;;;5015454;28;20022;-77
2023/07/08 01:14:31;;;;;;;12.00;5.60;;;18.00;99.90;;;;;;5015383;28;20494;-76
2023/07/08 01:16:58;;;;;;;11.60;5.30;;;17.90;99.90;;;;;;5014007;28;20387;-76
2023/07/08 01:19:32;;;;;;;10.02;5.22;;;17.90;99.90;;;;;;5015385;28;20049;-76
2023/07/08 01:22:03;;;;;;;10.77;5.15;;;17.90;99.90;;;;;;5003265;28;20057;-77
2023/07/08 01:24:32;;;;;;;13.70;5.53;;;17.90;99.90;;;;;;5015420;28;20402;-76
2023/07/08 01:26:59;;;;;;;10.35;5.78;;;17.90;99.90;;;;;;5004739;28;20030;-77
2023/07/08 01:29:25;;;;;;;10.73;5.63;;;17.90;99.90;;;;;;5015190;28;20475;-77
2023/07/08 01:31:51;;;;;;;11.40;6.43;;;17.80;99.90;;;;;;5015038;28;20018;-77
2023/07/08 01:34:19;;;;;;;12.40;6.80;;;17.80;99.90;;;;;;4997230;28;20117;-76
2023/07/08 01:36:49;;;;;;;10.77;5.25;;;17.80;99.90;;;;;;5014810;28;20096;-77
2023/07/08 01:39:19;;;;;;;8.10;4.97;;;17.90;99.90;;;;;;4996987;28;20034;-77
2023/07/08 01:41:46;;;;;;;10.02;5.50;;;17.90;99.90;;;;;;5015146;28;20382;-77
2023/07/08 01:44:33;;;;;;;11.88;6.05;;;17.90;99.90;;;;;;5014660;28;20009;-76
2023/07/08 01:47:07;;;;;;;11.43;5.63;;;18.00;99.90;;;;;;4997033;28;20487;-76
2023/07/08 01:49:35;;;;;;;11.20;5.68;;;18.00;99.90;;;;;;5001605;28;20032;-76
2023/07/08 01:52:02;;;;;;;10.02;5.80;;;17.90;99.90;;;;;;4997240;28;20417;-77
2023/07/08 01:54:28;;;;;;;10.50;5.78;;;17.90;99.90;;;;;;5013655;28;20080;-77
2023/07/08 01:56:57;;;;;;;14.48;6.05;;;17.90;99.90;;;;;;5014673;28;20022;-76
2023/07/08 01:59:24;;;;;;;12.10;6.20;;;17.80;99.90;;;;;;4997236;28;20041;-76
2023/07/08 02:01:54;;;;;;;11.75;6.22;;;17.80;99.90;;;;;;4996645;28;20030;-76
2023/07/08 02:04:24;;;;;;;13.93;6.72;;;17.80;99.90;;;;;;5013997;28;20030;-76
2023/07/08 02:06:55;;;;;;;17.67;6.22;;;17.90;99.90;;;;;;5014132;28;20080;-76
2023/07/08 02:09:22;;;;;;;14.25;5.85;;;17.90;99.90;;;;;;5014420;28;20049;-78
2023/07/08 02:11:47;;;;;;;10.95;6.13;;;17.90;99.90;;;;;;4996566;28;20487;-76
2023/07/08 02:14:13;;;;;;;10.85;5.72;;;17.70;99.90;;;;;;4996779;28;20042;-77
2023/07/08 02:16:39;;;;;;;10.27;6.15;;;17.70;99.90;;;;;;4996785;28;20483;-76
2023/07/08 02:19:05;;;;;;;9.70;5.40;;;17.70;99.90;;;;;;5013861;28;20116;-76
2023/07/08 02:21:31;;;;;;;12.70;5.80;;;17.70;99.90;;;;;;5014428;28;20060;-77
2023/07/08 02:23:57;;;;;;;11.25;6.43;;;17.70;99.90;;;;;;4996644;28;20034;-76
2023/07/08 02:26:23;;;;;;;12.25;6.05;;;17.80;99.90;;;;;;5013937;28;20153;-76
2023/07/08 02:28:49;;;;;;;9.35;5.50;;;17.80;99.90;;;;;;4996745;28;20025;-77
2023/07/08 02:31:15;;;;;;;10.20;6.22;;;17.70;99.90;;;;;;5001099;28;20038;-77
2023/07/08 02:33:41;;;;;;;12.10;6.28;;;17.70;99.90;;;;;;5012503;28;20123;-76
2023/07/08 02:36:07;;;;;;;11.27;6.57;;;17.70;99.90;;;;;;5013852;28;20152;-76
2023/07/08 02:38:33;;;;;;;12.98;7.00;;;17.60;99.90;;;;;;5013684;28;20104;-77
2023/07/08 02:41:01;;;;;;;11.93;6.55;;;17.50;99.90;;;;;;5013764;28;20124;-77
2023/07/08 02:43:26;;;;;;;12.15;5.95;;;17.50;99.90;;;;;;5013934;28;20105;-76
2023/07/08 02:45:52;;;;;;;13.35;6.28;;;17.40;99.90;;;;;;5012265;28;20184;-77
2023/07/08 02:48:19;;;;;;;10.27;6.03;;;17.40;99.90;;;;;;5013601;28;20049;-76
2023/07/08 02:50:45;;;;;;;10.77;5.30;;;17.40;99.90;;;;;;5012299;28;20022;-76
2023/07/08 02:53:12;;;;;;;13.18;6.75;;;17.30;99.90;;;;;;4996018;28;20113;-77
2023/07/08 02:55:39;;;;;;;18.45;7.00;;;17.30;99.90;;;;;;4996048;28;20038;-76
2023/07/08 02:58:05;;;;;;;13.13;5.75;;;17.30;99.90;;;;;;5013348;28;20034;-76
2023/07/08 03:00:31;;;;;;;17.90;6.32;;;17.30;99.90;;;;;;4995954;28;20030;-76
2023/07/08 03:02:57;;;;;;;12.88;6.55;;;17.20;99.90;;;;;;5013015;28;20401;-76
2023/07/08 03:05:23;;;;;;;13.75;6.47;;;17.30;99.90;;;;;;5013578;28;20045;-76
2023/07/08 03:07:49;;;;;;;13.07;6.45;;;17.20;99.90;;;;;;4995227;28;20061;-76
2023/07/08 03:10:16;;;;;;;16.00;6.53;;;17.20;99.90;;;;;;4995909;28;20403;-76
2023/07/08 03:12:43;;;;;;;12.63;6.70;;;;;;;;;;5013051;28;20054;-76
2023/07/08 03:15:09;;;;;;;12.05;6.07;;;17.20;99.90;;;;;;5011165;28;20096;-76
2023/07/08 03:17:35;;;;;;;11.32;5.93;;;17.30;99.90;;;;;;5011751;28;20038;-76
2023/07/08 03:20:01;;;;;;;9.73;5.15;;;17.30;99.90;;;;;;4995826;28;20074;-76
2023/07/08 03:22:27;;;;;;;9.65;5.88;;;17.40;99.90;;;;;;5012043;28;20505;-76
2023/07/08 03:24:52;;;;;;;14.68;6.43;;;17.40;99.90;;;;;;4995499;28;20022;-76
2023/07/08 03:27:21;;;;;;;12.30;6.70;;;17.40;99.90;;;;;;4995493;28;20140;-76
2023/07/08 03:29:49;;;;;;;11.55;5.43;;;17.40;99.90;;;;;;4995443;28;20108;-76
2023/07/08 03:32:15;;;;;;;11.18;5.95;;;17.40;99.90;;;;;;4995280;28;20424;-77
2023/07/08 03:34:41;;;;;;;15.90;6.00;;;17.40;99.90;;;;;;5012663;28;20076;-76
2023/07/08 03:37:08;;;;;;;11.88;5.60;;;17.50;99.90;;;;;;4995400;28;20030;-76
2023/07/08 03:39:34;;;;;;;13.50;6.28;;;17.60;99.90;;;;;;4994978;28;20075;-76
2023/07/08 03:42:00;;;;;;;16.52;6.35;;;17.60;99.90;;;;;;5012764;28;20021;-76
2023/07/08 03:44:26;;;;;;;16.05;6.45;;;17.60;99.90;;;;;;5012863;28;20018;-77
2023/07/08 03:46:53;;;;;;;12.52;6.47;;;17.70;99.90;;;;;;4994840;28;20037;-77
2023/07/08 03:49:24;;;;;;;16.08;7.22;;;18.20;99.90;;;;;;4994681;28;20041;-76
2023/07/08 03:51:55;;;;;;;11.43;6.10;;;19.30;99.90;;;;;;5010980;28;20435;-76
2023/07/08 03:54:24;;;;;;;11.43;5.53;;;19.90;99.90;;;;;;5011480;28;20026;-76
2023/07/08 03:56:51;;;;;;;13.18;6.25;;;20.40;99.90;;;;;;4994637;28;20030;-76
2023/07/08 03:59:18;;;;;;;8.93;5.25;;;20.90;99.90;;;;;;5012340;28;20026;-77
2023/07/08 04:01:45;;;;;;;10.70;5.22;;;21.50;99.90;;;;;;4978716;28;20033;-76
2023/07/08 04:04:14;;;;;;;7.88;5.15;;;21.90;99.90;;;;;;5010982;28;20030;-76
2023/07/08 04:06:41;;;;;;;9.40;5.60;;;22.60;99.90;;;;;;4994617;28;20030;-77
2023/07/08 04:09:07;;;;;;;12.23;5.43;;;22.70;99.90;;;;;;5012192;28;20028;-77
2023/07/08 04:11:33;;;;;;;12.60;5.30;;;23.20;99.90;;;;;;5012274;28;20057;-77
2023/07/08 04:13:59;;;;;;;11.68;5.53;;;23.40;99.70;;;;;;5012336;28;20065;-77
2023/07/08 04:16:51;;;;;;;12.32;5.85;;;23.20;99.40;;;;;;5012197;28;20022;-77
2023/07/08 04:19:17;;;;;;;11.85;6.07;;;23.50;98.90;;;;;;5012348;28;20041;-76
2023/07/08 04:21:44;;;;;;;12.88;5.78;;;24.20;97.90;;;;;;5012036;28;20105;-77
2023/07/08 04:24:12;;;;;;;11.45;6.10;;;24.90;96.80;;;;;;5012137;28;20084;-76
2023/07/08 04:26:39;;;;;;;11.20;5.80;;;24.80;95.50;;;;;;4994308;28;20463;-77
2023/07/08 04:29:13;;;;;;;10.05;5.45;;;24.80;95.60;;;;;;5012067;28;20109;-77
2023/07/08 04:31:39;;;;;;;11.90;5.60;;;24.60;94.40;;;;;;5012369;28;20052;-77
2023/07/08 04:34:06;;;;;;;9.38;5.05;;;25.40;94.00;;;;;;5011941;28;20030;-77
2023/07/08 04:36:33;;;;;;;15.32;5.85;;;25.10;93.90;;;;;;5012035;28;20113;-77
2023/07/08 04:38:59;;;;;;;13.15;5.53;;;25.30;92.90;;;;;;5010967;28;20045;-77
2023/07/08 04:41:26;;;;;;;14.85;5.32;;;25.90;92.50;;;;;;4994601;28;20122;-77
2023/07/08 04:43:53;;;;;;;9.85;5.28;;;26.10;92.30;;;;;;5011728;28;20064;-78
2023/07/08 04:46:37;;;;;;;12.77;5.68;;;26.90;92.00;;;;;;5012190;28;20049;-77
2023/07/08 04:49:03;;;;;;;17.08;7.25;;;27.90;90.70;;;;;;5011888;28;20547;-78
2023/07/08 04:51:29;;;;;;;12.88;5.82;;;27.00;89.40;;;;;;4994474;28;20018;-78
2023/07/08 04:53:55;;;;;;;9.02;5.07;;;28.00;88.40;;;;;;5011851;28;20030;-77
2023/07/08 04:56:22;;;;;;;11.98;7.00;;;28.00;89.10;;;;;;5011793;28;20072;-77
2023/07/08 04:58:47;;;;;;;12.75;6.93;;;28.50;87.60;;;;;;5011781;28;20434;-78
2023/07/08 05:01:13;;;;;;;17.08;7.55;;;27.90;87.10;;;;;;5011624;28;20038;-77
2023/07/08 05:03:39;;;;;;;17.00;8.82;;;26.30;87.60;;;;;;5011466;28;20022;-76
2023/07/08 05:06:05;;;;;;;19.95;10.32;;;25.30;90.30;;;;;;5015768;28;20037;-78
2023/07/08 05:08:31;;;;;;;16.77;9.68;;;24.10;92.60;;;;;;4993977;28;20041;-77
2023/07/08 05:10:57;;;;;;;18.17;10.75;;;23.90;93.90;;;;;;5010587;28;20394;-78
2023/07/08 05:13:23;;;;;;;20.90;9.98;;;23.60;95.30;;;;;;5005747;28;20022;-77
2023/07/08 05:15:49;;;;;;;16.67;9.95;;;23.60;96.00;;;;;;5002512;28;20499;-78
2023/07/08 05:18:14;;;;;;;15.77;8.73;;;23.00;97.00;;;;;;5003501;28;20036;-78
2023/07/08 05:20:40;;;;;;;14.15;8.20;;;22.80;98.70;;;;;;5008710;28;20034;-77
2023/07/08 05:23:06;;;;;;;15.50;7.28;;;23.10;99.70;;;;;;5011297;28;20426;-77
2023/07/08 05:25:33;;;;;;;14.05;7.60;;;23.20;99.90;;;;;;5011802;28;20120;-76
2023/07/08 05:27:59;;;;;;;11.70;5.75;;;23.00;99.90;;;;;;5001725;28;20017;-77
2023/07/08 05:30:25;;;;;;;17.55;7.03;;;23.30;99.90;;;;;;5010976;28;20480;-77
2023/07/08 05:32:53;;;;;;;12.88;5.88;;;23.30;99.90;;;;;;4991607;28;20061;-76
2023/07/08 05:35:18;;;;;;;11.90;6.15;;;23.40;99.90;;;;;;5002315;28;20044;-77
2023/07/08 05:37:46;;;;;;;15.55;6.25;;;23.50;99.90;;;;;;5014548;28;20104;-78
2023/07/08 05:40:13;;;;;;;14.80;6.05;;;23.70;99.90;;;;;;5027027;28;20041;-77
2023/07/08 05:42:39;;;;;;;11.15;5.32;;;24.00;99.70;;;;;;5028077;28;20379;-77
2023/07/08 05:45:09;;;;;;;13.40;5.70;;;24.00;98.40;;;;;;5022070;28;20032;-77
2023/07/08 05:47:37;;;;;;;10.57;6.40;;;23.90;98.90;;;;;;5024705;28;20018;-77
2023/07/08 05:50:03;;;;;;;8.25;5.05;;;24.10;99.90;;;;;;5021381;28;20486;-77
2023/07/08 05:52:28;;;;;;;11.27;6.07;;;24.20;98.90;;;;;;5022900;28;20479;-78
2023/07/08 05:54:55;;;;;;;13.80;6.68;;;24.20;99.00;;;;;;5025012;28;20090;-79
2023/07/08 05:57:23;;;;;;;11.45;6.05;;;24.40;98.60;;;;;;5021426;28;20028;-77
2023/07/08 05:59:50;;;;;;;15.05;5.97;;;24.80;98.10;;;;;;5023532;28;20084;-77
2023/07/08 06:02:17;;;;;;;11.57;5.25;;;24.80;98.00;;;;;;5027720;28;20033;-80
2023/07/08 06:04:43;;;;;;;14.43;5.13;;;24.90;98.10;;;;;;5004640;28;20030;-77
2023/07/08 06:07:09;;;;;;;16.73;5.85;;;25.00;97.30;;;;;;5007692;28;20050;-78
2023/07/08 06:09:35;;;;;;;9.00;5.13;;;24.80;97.00;;;;;;5017629;28;20103;-77
2023/07/08 06:12:00;;;;;;;10.27;5.47;;;25.00;96.00;;;;;;5023116;28;20081;-78
2023/07/08 06:14:27;;;;;;;8.43;5.15;;;25.30;97.70;;;;;;5027521;28;20018;-79
2023/07/08 06:16:54;;;;;;;10.02;5.95;;;25.20;97.30;;;;;;5020508;28;20107;-77
2023/07/08 06:19:21;;;;;;;8.63;5.30;;;25.00;96.40;;;;;;5020918;28;20392;-78
2023/07/08 06:21:47;;;;;;;9.48;5.43;;;25.20;95.50;;;;;;5008402;28;20021;-78
2023/07/08 06:24:12;;;;;;;12.00;5.75;;;25.00;96.30;;;;;;5020252;28;20030;-78
2023/07/08 06:26:38;;;;;;;17.45;5.53;;;25.30;95.40;;;;;;5023367;28;20108;-79
2023/07/08 06:29:04;;;;;;;10.48;4.90;;;25.30;95.40;;;;;;5006775;28;20031;-79
2023/07/08 06:31:30;;;;;;;10.75;5.60;;;25.20;94.60;;;;;;5006395;28;20033;-77
2023/07/08 06:33:56;;;;;;;11.45;5.35;;;25.60;96.00;;;;;;5013504;28;20414;-80
2023/07/08 06:36:22;;;;;;;9.98;5.20;;;25.80;95.50;;;;;;5023406;28;20100;-79
2023/07/08 06:38:48;;;;;;;11.43;5.35;;;25.70;94.60;;;;;;5014135;28;20452;-80
2023/07/08 06:41:14;;;;;;;12.68;5.22;;;25.60;93.00;;;;;;5018175;28;20037;-79
2023/07/08 06:43:40;;;;;;;8.52;4.85;;;25.60;93.70;;;;;;5017732;28;20026;-78
2023/07/08 06:46:16;;;;;;;7.75;4.00;;;25.90;92.50;;;;;;5020268;28;20030;-76
2023/07/08 06:48:42;;;;;;;11.07;5.20;;;25.80;90.40;;;;;;5033834;28;20117;-77
2023/07/08 06:51:08;;;;;;;10.35;4.65;;;25.90;92.90;;;;;;5033583;28;20097;-80
2023/07/08 06:53:34;;;;;;;10.40;5.05;;;26.00;91.30;;;;;;5015048;28;20475;-79
2023/07/08 06:56:00;;;;;;;6.15;3.92;;;26.20;91.80;;;;;;5013503;28;20022;-79
2023/07/08 06:58:26;;;;;;;9.25;4.97;;;26.40;91.80;;;;;;5023363;28;20057;-79
2023/07/08 07:00:51;;;;;;;7.53;3.88;;;26.70;92.70;;;;;;5014998;28;20066;-80
2023/07/08 07:03:17;;;;;;;10.10;4.13;;;26.60;90.10;;;;;;5026507;28;20017;-78
2023/07/08 07:05:43;;;;;;;11.15;4.95;;;26.70;89.70;;;;;;5011505;28;20041;-78
2023/07/08 07:08:09;;;;;;;8.27;4.32;;;26.60;88.10;;;;;;5010389;28;20411;-79
2023/07/08 07:10:35;;;;;;;6.38;4.05;;;26.70;89.20;;;;;;5005717;28;20033;-78
2023/07/08 07:13:01;;;;;;;8.07;4.25;;;26.60;87.40;;;;;;5004948;28;20103;-77
2023/07/08 07:15:30;;;;;;;9.35;4.45;;;26.70;86.80;;;;;;5013560;28;20034;-77
2023/07/08 07:17:56;;;;;;;6.28;3.90;;;26.60;86.50;;;;;;5012981;28;20444;-79
2023/07/08 07:20:22;;;;;;;7.43;4.38;;;26.60;87.80;;;;;;5006983;28;20084;-80
2023/07/08 07:22:48;;;;;;;10.95;4.63;;;26.40;87.70;;;;;;5008587;28;20463;-79
2023/07/08 07:25:14;;;;;;;6.32;3.50;;;26.80;85.40;;;;;;5030886;28;20445;-77
2023/07/08 07:27:40;;;;;;;10.73;4.93;;;26.90;86.70;;;;;;5012939;28;20033;-77
2023/07/08 07:30:06;;;;;;;11.45;4.93;;;27.00;85.20;;;;;;5018789;28;20028;-78
2023/07/08 07:32:33;;;;;;;6.68;4.30;;;26.90;88.20;;;;;;5020662;28;20022;-78
2023/07/08 07:38:30;;;;;;;7.38;4.07;;;27.00;89.10;;;;;;5011187;28;20045;-80
2023/07/08 07:40:56;;;;;;;8.65;4.97;;;27.50;85.80;;;;;;5032605;28;20041;-83
2023/07/08 07:47:19;;;;;;;5.03;3.22;;;27.60;84.00;;;;;;4980525;28;20038;-79
2023/07/08 07:49:45;;;;;;;10.73;3.85;;;27.50;80.30;;;;;;4984114;28;20023;-82
2023/07/08 07:52:11;;;;;;;6.97;3.85;;;27.60;81.60;;;;;;4972843;28;20050;-79
2023/07/08 07:54:38;;;;;;;7.68;4.10;;;27.40;85.40;;;;;;4983058;28;20036;-80
2023/07/08 07:57:05;;;;;;;7.35;3.90;;;27.40;85.30;;;;;;4983942;28;20373;-78
2023/07/08 07:59:31;;;;;;;6.32;3.70;;;27.40;85.40;;;;;;4980373;28;20034;-78
2023/07/08 08:01:56;;;;;;;6.45;3.65;;;27.80;87.20;;;;;;4984300;28;20543;-77
2023/07/08 08:04:22;;;;;;;7.03;3.90;;;27.70;83.80;;;;;;4971975;28;20118;-81
2023/07/08 08:06:48;;;;;;;6.07;3.50;;;27.80;77.70;;;;;;4983820;28;20035;-81
2023/07/08 08:09:14;;;;;;;6.97;3.10;;;27.80;76.40;;;;;;4984205;28;20464;-80
2023/07/08 08:11:39;;;;;;;5.30;2.83;;;27.90;76.50;;;;;;4978298;28;20034;-80
2023/07/08 08:14:06;;;;;;;5.85;3.60;;;27.70;77.30;;;;;;4974789;28;20026;-78
2023/07/08 08:16:32;;;;;;;5.35;3.25;;;27.90;77.50;;;;;;4983540;28;20550;-79
2023/07/08 08:18:58;;;;;;;5.28;2.53;;;28.10;78.60;;;;;;4991055;28;20052;-81
2023/07/08 08:21:23;;;;;;;5.63;2.92;;;28.40;74.60;;;;;;4977308;28;20037;-81
2023/07/08 08:23:49;;;;;;;5.78;2.92;;;28.30;73.70;;;;;;4994234;28;20036;-84
2023/07/08 08:26:15;;;;;;;4.60;2.63;;;28.20;73.10;;;;;;5024890;28;20029;-82
2023/07/08 08:28:41;;;;;;;5.70;2.92;;;28.30;73.80;;;;;;5008238;28;20037;-78
2023/07/08 08:31:07;;;;;;;5.18;3.25;;;28.40;70.60;;;;;;5005037;28;20429;-81
2023/07/08 08:33:32;;;;;;;5.82;2.92;;;28.60;75.10;;;;;;5025057;28;20037;-80
2023/07/08 08:35:58;;;;;;;6.32;2.95;;;28.60;74.70;;;;;;5000000;28;20478;-80
2023/07/08 08:38:24;;;;;;;4.28;2.72;;;28.50;73.70;;;;;;5002148;28;20073;-81
2023/07/08 08:40:50;;;;;;;4.88;2.97;;;28.30;74.50;;;;;;5000896;28;20495;-78
2023/07/08 08:43:21;;;;;;;4.35;2.30;;;28.60;74.70;;;;;;5001727;28;20030;-82
2023/07/08 08:46:16;;;;;;;5.90;3.25;;;28.80;73.30;;;;;;5015822;28;20035;-81
2023/07/08 08:48:49;;;;;;;5.28;3.25;;;28.40;71.90;;;;;;5022715;28;20037;-81
2023/07/08 08:51:16;;;;;;;5.35;3.40;;;28.60;72.90;;;;;;5001928;28;20038;-84
2023/07/08 08:53:43;;;;;;;4.45;2.72;;;28.50;71.10;;;;;;5019994;28;20057;-81
2023/07/08 08:56:22;;;;;;;4.20;2.38;;;28.50;71.60;;;;;;5001746;28;20075;-81
2023/07/08 08:59:09;;;;;;;5.25;2.60;;;28.50;70.50;;;;;;5015658;28;20235;-78
2023/07/08 09:01:34;;;;;;;5.65;2.72;;;28.30;70.10;;;;;;4976732;28;20399;-82
2023/07/08 09:04:16;;;;;;;5.93;2.78;;;28.40;71.60;;;;;;5008111;28;20037;-81
2023/07/08 09:06:42;;;;;;;4.97;2.80;;;28.30;72.50;;;;;;5021660;28;20046;-84
2023/07/08 09:09:22;;;;;;;5.70;3.05;;;28.30;74.80;;;;;;5025915;28;20033;-77
2023/07/08 09:12:25;;;;;;;4.30;2.80;;;28.30;72.10;;;;;;5029172;28;20030;-82
2023/07/08 09:14:51;;;;;;;3.80;2.65;;;28.60;72.60;;;;;;4979895;28;20197;-77
2023/07/08 09:17:34;;;;;;;5.32;3.25;;;28.50;72.60;;;;;;4981984;28;20034;-81
2023/07/08 09:20:03;;;;;;;6.07;3.05;;;28.30;71.40;;;;;;4949270;28;20039;-84
2023/07/08 09:22:41;;;;;;;8.93;2.83;;;28.30;70.30;;;;;;4971788;28;20126;-83
2023/07/08 09:25:09;;;;;;;4.35;2.97;;;28.00;73.40;;;;;;4963123;28;20046;-78
2023/07/08 09:27:35;;;;;;;5.03;2.60;;;28.10;70.10;;;;;;4982392;28;20114;-83
2023/07/08 09:30:01;;;;;;;5.53;2.80;;;28.20;72.90;;;;;;4978670;28;20129;-78
2023/07/08 09:32:28;;;;;;;5.22;2.92;;;28.20;72.70;;;;;;4973227;28;20022;-81
2023/07/08 09:35:01;;;;;;;5.30;2.90;;;28.20;71.00;;;;;;4993696;28;20030;-79
2023/07/08 09:37:30;;;;;;;5.63;3.10;;;28.10;74.50;;;;;;4991381;28;20073;-82
2023/07/08 09:39:58;;;;;;;5.15;2.75;;;28.30;76.00;;;;;;4993850;28;20065;-83
2023/07/08 09:42:32;;;;;;;8.52;3.22;;;28.50;75.50;;;;;;4993985;28;20394;-83
2023/07/08 09:45:10;;;;;;;7.20;2.85;;;28.20;73.70;;;;;;4993568;28;20104;-79
2023/07/08 09:47:39;;;;;;;5.10;2.97;;;28.20;73.30;;;;;;4992637;28;20058;-77
2023/07/08 09:50:20;;;;;;;3.53;2.55;;;28.40;70.60;;;;;;5019341;28;20029;-82
2023/07/08 09:52:47;;;;;;;6.00;2.83;;;28.70;72.70;;;;;;5035208;28;20069;-85
2023/07/08 09:55:14;;;;;;;3.30;2.00;;;28.80;70.80;;;;;;5031852;28;20116;-84
2023/07/08 09:57:40;;;;;;;5.88;3.13;;;28.60;68.00;;;;;;5013073;28;20066;-77
2023/07/08 10:00:11;;;;;;;5.88;3.08;;;28.50;69.60;;;;;;5019488;28;20080;-83
2023/07/08 10:02:42;;;;;;;6.28;3.40;;;28.50;69.60;;;;;;5021600;28;20062;-81
2023/07/08 10:05:18;;;;;;;6.35;3.30;;;28.50;69.50;;;;;;5016708;28;20075;-81
2023/07/08 10:07:47;;;;;;;4.38;2.40;;;28.60;70.10;;;;;;5002536;28;20391;-81
2023/07/08 10:10:22;;;;;;;5.10;2.95;;;28.70;70.30;;;;;;5026004;28;20022;-79
2023/07/08 10:12:58;;;;;;;6.82;3.38;;;28.60;74.20;;;;;;5023941;28;20033;-78
2023/07/08 10:15:38;;;;;;;6.70;3.25;;;28.80;70.10;;;;;;5027601;28;20117;-83
2023/07/08 10:18:07;;;;;;;4.68;2.92;;;28.80;72.10;;;;;;5014210;28;20030;-81
2023/07/08 10:20:46;;;;;;;6.55;3.50;;;28.70;70.10;;;;;;5018781;28;20037;-77
2023/07/08 10:23:36;;;;;;;7.65;3.80;;;28.80;72.10;;;;;;5026624;28;20036;-83
2023/07/08 10:26:30;;;;;;;6.25;3.75;;;28.70;69.40;;;;;;5018010;28;20464;-80
2023/07/08 10:29:09;;;;;;;9.73;4.68;;;28.80;69.10;;;;;;5027079;28;20474;-81
2023/07/08 10:31:44;;;;;;;9.98;4.75;;;28.70;70.30;;;;;;5007491;28;20030;-82
2023/07/08 10:34:29;;;;;;;9.20;4.57;;;28.70;69.70;;;;;;5007808;28;20053;-82
2023/07/08 10:37:07;;;;;;;9.23;4.72;;;28.80;71.20;;;;;;5014540;28;20081;-81
2023/07/08 10:39:36;;;;;;;8.32;5.20;;;28.60;70.60;;;;;;5013471;28;20124;-78
2023/07/08 10:42:16;;;;;;;7.22;4.28;;;28.70;70.10;;;;;;5020059;28;20025;-82
2023/07/08 10:44:52;;;;;;;10.50;5.07;;;28.60;71.20;;;;;;5011410;28;20440;-77
2023/07/08 10:47:35;;;;;;;7.65;3.92;;;28.50;69.80;;;;;;5009195;28;20034;-81
2023/07/08 10:50:24;;;;;;;11.20;4.18;;;28.40;70.20;;;;;;5008722;28;20049;-82
2023/07/08 10:53:26;;;;;;;5.95;4.00;;;28.60;69.60;;;;;;5000473;28;20036;-83
2023/07/08 10:55:51;;;;;;;;;;;28.60;71.60;;;;;;5019697;28;20467;-77
2023/07/08 10:58:44;;;;;;;5.50;3.35;;;28.60;70.30;;;;;;5015858;28;19924;-77
2023/07/08 11:01:31;;;;;;;10.20;5.32;;;28.50;68.90;;;;;;5007227;28;20036;-79
2023/07/08 11:04:11;;;;;;;8.68;3.97;;;28.50;69.40;;;;;;5011283;28;20053;-82
2023/07/08 11:06:57;;;;;;;8.90;3.42;;;28.70;71.10;;;;;;5012002;28;20072;-83
2023/07/08 11:09:39;;;;;;;6.28;3.03;;;28.70;66.80;;;;;;5011992;28;20022;-76
2023/07/08 11:12:25;;;;;;;6.90;3.27;;;28.80;67.50;;;;;;5012792;28;20522;-79
2023/07/08 11:15:05;;;;;;;6.63;3.00;;;28.70;67.60;;;;;;5011319;28;20268;-80
2023/07/08 11:18:04;;;;;;;7.88;3.90;;;28.70;69.00;;;;;;5010353;28;20026;-79
2023/07/08 11:20:53;;;;;;;6.35;2.78;;;28.70;69.20;;;;;;5023678;28;20034;-82
2023/07/08 11:23:40;;;;;;;3.90;2.40;;;28.90;67.90;;;;;;5028426;28;20026;-81
2023/07/08 11:26:29;;;;;;;5.05;3.13;;;29.00;69.00;;;;;;5008332;28;20044;-77
2023/07/08 11:28:58;;;;;;;5.68;2.90;;;28.80;66.80;;;;;;5008511;28;20363;-77
2023/07/08 11:31:25;;;;;;;7.07;2.72;;;28.70;66.40;;;;;;5011379;28;20061;-77
2023/07/08 11:33:53;;;;;;;5.78;2.95;;;28.80;69.20;;;;;;5028322;28;20034;-84
2023/07/08 11:36:21;;;;;;;5.00;3.08;;;28.70;69.20;;;;;;5032075;28;20037;-85
2023/07/08 11:38:52;;;;;;;6.25;3.13;;;28.90;68.60;;;;;;5033795;28;20057;-79
2023/07/08 11:41:20;;;;;;;;;;;29.00;69.10;;;;;;5016646;28;20046;-85
2023/07/08 11:43:52;;;;;;;5.40;2.90;;;28.90;70.30;;;;;;5032693;28;19905;-79
2023/07/08 11:46:28;;;;;;;6.63;3.33;;;29.00;70.10;;;;;;5022621;28;20053;-80
2023/07/08 11:49:11;;;;;;;6.57;2.83;;;28.80;68.80;;;;;;5008753;28;20088;-77
2023/07/08 11:51:40;;;;;;;5.63;3.05;;;28.90;68.90;;;;;;5032335;28;20021;-84
2023/07/08 11:54:28;;;;;;;4.95;2.63;;;29.00;71.50;;;;;;5032712;28;20462;-77
2023/07/08 11:56:57;;;;;;;3.97;3.00;;;28.90;67.60;;;;;;5009422;28;20067;-82
2023/07/08 11:59:36;;;;;;;5.88;2.92;;;28.80;67.00;;;;;;5033553;28;20029;-83
2023/07/08 12:02:17;;;;;;;4.63;2.67;;;28.50;68.10;;;;;;5032894;28;20041;-85
2023/07/08 12:05:02;;;;;;;7.00;3.10;;;28.60;69.90;;;;;;5032111;28;20036;-82
2023/07/08 12:07:40;;;;;;;6.05;2.67;;;28.70;67.90;;;;;;5033458;28;20493;-84
2023/07/08 12:10:15;;;;;;;5.82;3.08;;;28.80;68.20;;;;;;5009167;28;20033;-85
2023/07/08 12:12:43;;;;;;;8.98;3.58;;;28.80;69.60;;;;;;5032339;28;20148;-84
2023/07/08 12:15:22;;;;;;;9.25;3.38;;;29.00;70.10;;;;;;5032617;28;20026;-84
2023/07/08 12:17:48;;;;;;;5.10;3.25;;;29.00;69.00;;;;;;5033193;28;20025;-81
2023/07/08 12:20:27;;;;;;;7.13;2.40;;;29.00;67.60;;;;;;5033257;28;20033;-83
2023/07/08 12:22:52;;;;;;;4.85;3.10;;;28.80;67.10;;;;;;5031777;28;20467;-77
2023/07/08 12:25:23;;;;;;;4.78;3.00;;;28.70;69.00;;;;;;5032301;28;20025;-77
2023/07/08 12:27:49;;;;;;;6.82;2.88;;;28.80;69.50;;;;;;5031696;28;20033;-85
2023/07/08 12:30:16;;;;;;;4.85;2.92;;;28.90;67.30;;;;;;5032381;28;20057;-84
2023/07/08 12:32:43;;;;;;;4.65;2.40;;;29.10;69.30;;;;;;5032211;28;20051;-83
2023/07/08 12:35:23;;;;;;;4.68;2.78;;;29.00;67.60;;;;;;5032062;28;20022;-85
2023/07/08 12:37:52;;;;;;;6.85;3.22;;;29.10;68.50;;;;;;5031371;28;20129;-86
2023/07/08 12:40:17;;;;;;;7.68;2.95;;;29.20;70.70;;;;;;5032479;28;20044;-83
2023/07/08 12:42:45;;;;;;;5.28;3.33;;;29.20;69.30;;;;;;5031453;28;20033;-85
2023/07/08 12:45:21;;;;;;;5.78;2.90;;;29.20;67.50;;;;;;5032215;28;20041;-83
2023/07/08 12:47:48;;;;;;;9.23;2.72;;;29.20;68.50;;;;;;5033001;28;20525;-77
2023/07/08 12:50:15;;;;;;;5.57;2.72;;;29.20;67.40;;;;;;5038204;28;20032;-76
2023/07/08 12:52:45;;;;;;;6.97;3.60;;;29.10;68.00;;;;;;5035861;28;20026;-83
2023/07/08 12:55:12;;;;;;;6.18;2.95;;;29.20;68.60;;;;;;5036336;28;20084;-84
2023/07/08 12:57:44;;;;;;;5.85;3.08;;;29.10;67.40;;;;;;5037801;28;20029;-76
2023/07/08 13:00:26;;;;;;;5.05;2.67;;;29.10;67.90;;;;;;5039103;28;20105;-82
2023/07/08 13:03:14;;;;;;;4.78;2.92;;;29.10;67.70;;;;;;5037350;28;20038;-84
2023/07/08 13:05:41;;;;;;;4.68;3.08;;;29.10;66.90;;;;;;5035624;28;20470;-84